createdAt,value
2018-03-30T00:02:03.142Z,3.74
2018-03-30T00:04:30.612Z,3.75
2018-03-30T00:07:12.957Z,3.80
2018-03-30T00:09:52.456Z,3.82
2018-03-30T00:12:19.949Z,3.83
2018-03-30T00:14:47.457Z,3.85
2018-03-30T00:17:14.937Z,3.86
2018-03-30T00:19:42.458Z,3.87
2018-03-30T00:22:09.934Z,3.97
2018-03-30T00:24:37.493Z,3.98
2018-03-30T00:27:04.945Z,3.97
2018-03-30T00:29:32.411Z,4.01
2018-03-30T00:31:59.910Z,4.01
2018-03-30T00:34:27.377Z,3.98
2018-03-30T00:36:54.833Z,3.97
2018-03-30T00:39:22.425Z,3.95
2018-03-30T00:41:49.892Z,3.94
2018-03-30T00:44:17.366Z,3.92
2018-03-30T00:46:44.867Z,3.92
2018-03-30T00:49:12.491Z,3.92
2018-03-30T00:51:39.960Z,3.94
2018-03-30T00:54:07.458Z,3.95
2018-03-30T00:56:34.919Z,3.94
2018-03-30T00:59:02.388Z,3.94
2018-03-30T01:01:29.910Z,3.93
2018-03-30T01:03:57.435Z,3.92
2018-03-30T01:06:24.900Z,3.89
2018-03-30T01:08:52.406Z,3.85
2018-03-30T01:11:19.896Z,3.80
2018-03-30T01:13:47.353Z,3.72
2018-03-30T01:16:14.895Z,3.72
2018-03-30T01:18:42.350Z,3.69
2018-03-30T01:21:09.821Z,3.63
2018-03-30T01:23:37.323Z,3.63
2018-03-30T01:26:04.790Z,3.60
2018-03-30T01:28:32.275Z,3.54
2018-03-30T01:30:59.759Z,3.45
2018-03-30T01:33:27.242Z,3.36
2018-03-30T01:35:54.693Z,3.28
2018-03-30T01:38:22.173Z,3.18
2018-03-30T01:40:49.649Z,3.13
2018-03-30T01:43:17.119Z,3.04
2018-03-30T01:45:44.593Z,2.99
2018-03-30T01:48:12.055Z,2.92
2018-03-30T01:50:39.537Z,2.87
2018-03-30T01:53:07.022Z,2.84
2018-03-30T01:55:34.474Z,2.80
2018-03-30T01:58:01.944Z,2.78
2018-03-30T02:00:29.424Z,2.79
2018-03-30T02:02:56.882Z,2.79
2018-03-30T02:05:24.355Z,2.76
2018-03-30T02:07:51.860Z,2.73
2018-03-30T02:10:19.341Z,2.73
2018-03-30T02:12:46.813Z,2.69
2018-03-30T02:15:14.299Z,2.67
2018-03-30T02:17:41.778Z,2.62
2018-03-30T02:20:09.250Z,2.57
2018-03-30T02:22:36.760Z,2.51
2018-03-30T02:25:04.302Z,2.48
2018-03-30T02:27:31.832Z,2.52
2018-03-30T02:29:59.337Z,2.59
2018-03-30T02:32:26.804Z,2.62
2018-03-30T02:34:54.276Z,2.62
2018-03-30T02:37:21.777Z,2.62
2018-03-30T02:39:49.343Z,2.61
2018-03-30T02:42:16.809Z,2.57
2018-03-30T02:44:44.311Z,2.55
2018-03-30T02:47:11.785Z,2.50
2018-03-30T02:49:39.266Z,2.44
2018-03-30T02:52:06.775Z,2.40
2018-03-30T02:54:34.242Z,2.35
2018-03-30T02:57:01.714Z,2.33
2018-03-30T02:59:29.309Z,2.32
2018-03-30T03:01:56.775Z,2.31
2018-03-30T03:04:24.246Z,2.31
2018-03-30T03:06:51.813Z,2.26
2018-03-30T03:09:19.299Z,2.19
2018-03-30T03:11:46.758Z,2.18
2018-03-30T03:14:14.245Z,2.15
2018-03-30T03:16:41.705Z,2.10
2018-03-30T03:19:09.195Z,2.05
2018-03-30T03:21:36.662Z,2.00
2018-03-30T03:24:04.131Z,1.93
2018-03-30T03:26:31.612Z,1.90
2018-03-30T03:28:59.092Z,1.89
2018-03-30T03:31:26.603Z,1.90
2018-03-30T03:33:54.113Z,1.89
2018-03-30T03:36:21.576Z,1.92
2018-03-30T03:38:49.038Z,1.90
2018-03-30T03:41:16.590Z,1.90
2018-03-30T03:43:44.047Z,1.91
2018-03-30T03:46:11.516Z,1.91
2018-03-30T03:48:39.005Z,1.89
2018-03-30T03:51:06.462Z,1.84
2018-03-30T03:53:33.981Z,1.81
2018-03-30T03:56:01.439Z,1.79
2018-03-30T03:58:28.894Z,1.79
2018-03-30T04:00:56.439Z,1.81
2018-03-30T04:03:23.915Z,1.81
2018-03-30T04:05:51.399Z,1.79
2018-03-30T04:08:18.889Z,1.80
2018-03-30T04:10:46.938Z,1.77
2018-03-30T04:13:14.423Z,1.78
2018-03-30T04:15:41.912Z,1.77
2018-03-30T04:18:09.370Z,1.74
2018-03-30T04:20:36.853Z,1.68
2018-03-30T04:23:04.327Z,1.66
2018-03-30T04:25:31.978Z,1.66
2018-03-30T04:27:59.893Z,1.64
2018-03-30T04:30:27.403Z,1.60
2018-03-30T04:32:54.932Z,1.57
2018-03-30T04:35:22.429Z,1.53
2018-03-30T04:37:49.903Z,1.53
2018-03-30T04:40:17.379Z,1.52
2018-03-30T04:42:44.866Z,1.50
2018-03-30T04:45:12.325Z,1.49
2018-03-30T04:47:39.802Z,1.51
2018-03-30T04:50:07.314Z,1.52
2018-03-30T04:52:34.770Z,1.57
2018-03-30T04:55:02.230Z,1.62
2018-03-30T04:57:29.703Z,1.66
2018-03-30T04:59:57.185Z,1.70
2018-03-30T05:02:24.757Z,1.76
2018-03-30T05:04:52.218Z,1.83
2018-03-30T05:07:19.718Z,1.91
2018-03-30T05:09:47.198Z,1.96
2018-03-30T05:12:14.678Z,2.01
2018-03-30T05:14:42.214Z,2.04
2018-03-30T05:17:09.682Z,2.07
2018-03-30T05:19:37.226Z,2.16
2018-03-30T05:22:04.722Z,2.31
2018-03-30T05:24:32.202Z,2.33
2018-03-30T05:26:59.666Z,2.33
2018-03-30T05:29:27.154Z,2.31
2018-03-30T05:31:54.622Z,2.33
2018-03-30T05:34:22.096Z,2.40
2018-03-30T05:36:49.574Z,2.30
2018-03-30T05:39:17.059Z,2.29
2018-03-30T05:41:44.547Z,2.31
2018-03-30T05:44:12.117Z,2.27
2018-03-30T05:46:39.583Z,2.30
2018-03-30T05:49:07.067Z,2.27
2018-03-30T05:51:34.567Z,2.30
2018-03-30T05:54:02.035Z,2.37
2018-03-30T05:56:29.515Z,2.39
2018-03-30T05:58:56.995Z,2.40
2018-03-30T06:01:24.512Z,2.43
2018-03-30T06:03:52.071Z,2.48
2018-03-30T06:06:19.547Z,2.55
2018-03-30T06:08:47.017Z,2.53
2018-03-30T06:11:14.556Z,2.54
2018-03-30T06:13:42.077Z,2.68
2018-03-30T06:16:09.621Z,2.77
2018-03-30T06:18:37.091Z,2.84
2018-03-30T06:21:04.570Z,2.93
2018-03-30T06:23:32.046Z,2.87
2018-03-30T06:28:33.331Z,2.67
2018-03-30T06:31:00.851Z,2.74
2018-03-30T06:33:28.414Z,2.92
2018-03-30T06:35:55.899Z,3.02
2018-03-30T06:38:23.370Z,3.06
2018-03-30T06:40:50.830Z,3.24
2018-03-30T06:43:18.334Z,3.36
2018-03-30T06:45:45.802Z,3.42
2018-03-30T06:48:13.361Z,3.40
2018-03-30T06:50:40.852Z,3.47
2018-03-30T06:53:08.350Z,3.51
2018-03-30T06:55:35.844Z,3.66
2018-03-30T06:58:03.323Z,3.68
2018-03-30T07:00:30.793Z,3.77
2018-03-30T07:02:58.358Z,3.90
2018-03-30T07:05:25.832Z,3.88
2018-03-30T07:07:53.425Z,3.89
2018-03-30T07:10:20.984Z,3.85
2018-03-30T07:12:48.455Z,3.81
2018-03-30T07:15:15.962Z,3.82
2018-03-30T07:17:43.439Z,3.99
2018-03-30T07:20:10.907Z,4.19
2018-03-30T07:22:38.382Z,4.27
2018-03-30T07:25:05.960Z,4.29
2018-03-30T07:27:33.434Z,4.58
2018-03-30T07:30:00.950Z,4.75
2018-03-30T07:32:28.411Z,5.02
2018-03-30T07:34:55.886Z,4.74
2018-03-30T07:37:23.419Z,4.67
2018-03-30T07:39:50.881Z,4.74
2018-03-30T07:42:18.343Z,5.16
2018-03-30T07:44:45.835Z,5.19
2018-03-30T07:47:13.306Z,5.37
2018-03-30T07:49:40.876Z,5.45
2018-03-30T07:52:08.398Z,5.41
2018-03-30T07:54:35.898Z,5.25
2018-03-30T07:57:03.350Z,5.31
2018-03-30T07:59:30.941Z,5.38
2018-03-30T08:01:58.402Z,5.48
2018-03-30T08:04:25.865Z,5.40
2018-03-30T08:06:53.422Z,5.57
2018-03-30T08:09:20.883Z,5.43
2018-03-30T08:11:48.358Z,5.10
2018-03-30T08:14:15.831Z,5.06
2018-03-30T08:16:43.295Z,5.44
2018-03-30T08:19:10.791Z,5.91
2018-03-30T08:21:38.275Z,5.96
2018-03-30T08:24:05.745Z,5.98
2018-03-30T08:26:33.230Z,6.21
2018-03-30T08:29:00.703Z,6.60
2018-03-30T08:31:28.201Z,6.89
2018-03-30T08:33:55.746Z,6.88
2018-03-30T08:36:23.202Z,6.46
2018-03-30T08:38:50.699Z,6.82
2018-03-30T08:41:18.161Z,7.07
2018-03-30T08:43:45.682Z,6.91
2018-03-30T08:46:13.172Z,6.87
2018-03-30T08:48:40.633Z,6.78
2018-03-30T08:51:08.306Z,6.74
2018-03-30T08:53:35.813Z,6.73
2018-03-30T08:56:03.270Z,6.16
2018-03-30T08:58:30.739Z,6.11
2018-03-30T09:00:58.209Z,5.86
2018-03-30T09:03:25.775Z,5.98
2018-03-30T09:05:53.260Z,6.07
2018-03-30T09:08:20.766Z,6.36
2018-03-30T09:10:48.235Z,6.48
2018-03-30T09:13:15.739Z,6.56
2018-03-30T09:15:43.330Z,6.70
2018-03-30T09:18:10.786Z,6.58
2018-03-30T09:20:38.282Z,6.48
2018-03-30T09:23:05.857Z,6.60
2018-03-30T09:25:33.455Z,6.80
2018-03-30T09:28:00.916Z,6.46
2018-03-30T09:30:28.367Z,6.38
2018-03-30T09:32:55.846Z,6.48
2018-03-30T09:35:23.306Z,6.77
2018-03-30T09:37:50.819Z,6.87
2018-03-30T09:40:18.316Z,6.64
2018-03-30T09:42:45.779Z,6.79
2018-03-30T09:45:13.436Z,6.77
2018-03-30T09:47:40.905Z,6.75
2018-03-30T09:50:08.363Z,6.69
2018-03-30T09:52:35.894Z,6.80
2018-03-30T09:55:03.355Z,6.96
2018-03-30T09:57:30.926Z,7.11
2018-03-30T09:59:58.716Z,7.43
2018-03-30T10:02:29.032Z,7.50
2018-03-30T10:05:01.546Z,7.41
2018-03-30T10:07:29.006Z,7.51
2018-03-30T10:09:56.486Z,7.74
2018-03-30T10:12:24.023Z,8.17
2018-03-30T10:14:51.547Z,8.30
2018-03-30T10:17:19.013Z,7.93
2018-03-30T10:19:46.490Z,8.38
2018-03-30T10:22:13.998Z,8.62
2018-03-30T10:24:41.462Z,8.64
2018-03-30T10:27:08.971Z,8.74
2018-03-30T10:29:36.472Z,8.67
2018-03-30T10:32:03.935Z,8.70
2018-03-30T10:34:31.423Z,9.03
2018-03-30T10:36:58.972Z,9.04
2018-03-30T10:39:26.501Z,9.37
2018-03-30T10:41:53.982Z,9.23
2018-03-30T10:44:21.434Z,9.28
2018-03-30T10:46:48.929Z,9.17
2018-03-30T10:49:16.411Z,8.97
2018-03-30T10:51:43.936Z,8.85
2018-03-30T10:54:11.387Z,8.78
2018-03-30T10:56:38.898Z,8.70
2018-03-30T10:59:06.354Z,8.99
2018-03-30T11:01:33.823Z,8.95
2018-03-30T11:04:01.370Z,9.17
2018-03-30T11:06:28.826Z,9.23
2018-03-30T11:08:56.390Z,9.18
2018-03-30T11:11:23.862Z,9.04
2018-03-30T11:13:51.330Z,8.94
2018-03-30T11:16:18.826Z,8.84
2018-03-30T11:18:46.302Z,8.90
2018-03-30T11:21:13.773Z,8.99
2018-03-30T11:23:41.246Z,9.31
2018-03-30T11:26:08.710Z,9.28
2018-03-30T11:28:36.255Z,8.92
2018-03-30T11:31:03.746Z,8.91
2018-03-30T11:33:31.218Z,9.03
2018-03-30T11:35:58.697Z,9.08
2018-03-30T11:38:26.167Z,8.95
2018-03-30T11:40:53.650Z,8.75
2018-03-30T11:43:21.216Z,8.85
2018-03-30T11:45:48.755Z,8.89
2018-03-30T11:48:16.248Z,9.04
2018-03-30T11:50:43.737Z,9.38
2018-03-30T11:53:11.239Z,9.58
2018-03-30T11:55:38.787Z,9.73
2018-03-30T11:58:06.246Z,9.76
2018-03-30T12:00:33.703Z,9.57
2018-03-30T12:03:01.208Z,9.95
2018-03-30T12:05:28.727Z,10.27
2018-03-30T12:07:56.269Z,10.38
2018-03-30T12:10:23.747Z,10.69
2018-03-30T12:12:51.306Z,10.91
2018-03-30T12:15:18.785Z,10.81
2018-03-30T12:17:46.245Z,10.39
2018-03-30T12:20:13.711Z,10.12
2018-03-30T12:22:41.695Z,10.11
2018-03-30T12:25:09.263Z,10.25
2018-03-30T12:27:36.736Z,10.53
2018-03-30T12:30:04.219Z,10.51
2018-03-30T12:32:31.688Z,10.42
2018-03-30T12:34:59.251Z,10.70
2018-03-30T12:37:26.742Z,10.63
2018-03-30T12:39:54.292Z,10.83
2018-03-30T12:42:21.804Z,11.00
2018-03-30T12:44:50.094Z,10.90
2018-03-30T12:47:17.656Z,10.63
2018-03-30T12:49:45.214Z,10.61
2018-03-30T12:52:12.666Z,10.78
2018-03-30T12:54:40.144Z,10.72
2018-03-30T12:57:07.955Z,10.93
2018-03-30T12:59:35.466Z,10.72
2018-03-30T13:02:02.957Z,10.65
2018-03-30T13:04:30.416Z,10.78
2018-03-30T13:06:57.932Z,11.06
2018-03-30T13:09:25.508Z,11.03
2018-03-30T13:11:53.066Z,11.24
2018-03-30T13:14:20.697Z,11.39
2018-03-30T13:16:48.321Z,11.53
2018-03-30T13:19:15.788Z,11.32
2018-03-30T13:21:43.310Z,11.42
2018-03-30T13:24:10.802Z,11.47
2018-03-30T13:26:38.296Z,11.62
2018-03-30T13:29:05.794Z,11.78
2018-03-30T13:31:33.319Z,11.67
2018-03-30T13:34:00.828Z,11.23
2018-03-30T13:36:28.374Z,10.84
2018-03-30T13:38:55.834Z,10.98
2018-03-30T13:41:23.313Z,11.23
2018-03-30T13:43:50.803Z,11.38
2018-03-30T13:46:18.307Z,11.49
2018-03-30T13:48:45.769Z,11.62
2018-03-30T13:51:17.969Z,11.68
2018-03-30T13:53:51.380Z,11.61
2018-03-30T13:56:18.913Z,11.60
2018-03-30T13:58:50.214Z,11.66
2018-03-30T14:01:19.586Z,11.83
2018-03-30T14:03:49.016Z,11.57
2018-03-30T14:06:31.015Z,11.52
2018-03-30T14:12:13.988Z,11.32
2018-03-30T14:14:41.598Z,11.62
2018-03-30T14:17:15.074Z,11.80
2018-03-30T14:19:42.659Z,11.66
2018-03-30T14:22:14.802Z,11.59
2018-03-30T14:27:52.085Z,11.73
2018-03-30T14:30:24.465Z,11.63
2018-03-30T14:32:51.958Z,11.42
2018-03-30T14:35:24.354Z,11.22
2018-03-30T14:37:52.442Z,11.08
2018-03-30T14:40:34.792Z,11.03
2018-03-30T14:43:06.165Z,11.06
2018-03-30T14:45:35.558Z,11.17
2018-03-30T14:48:12.053Z,11.19
2018-03-30T14:53:42.578Z,11.15
2018-03-30T14:56:12.903Z,11.14
2018-03-30T14:58:47.019Z,11.32
2018-03-30T15:01:18.168Z,11.35
2018-03-30T15:03:56.469Z,11.36
2018-03-30T15:06:33.935Z,11.29
2018-03-30T15:12:21.335Z,11.24
2018-03-30T15:14:50.406Z,11.43
2018-03-30T15:17:28.476Z,11.45
2018-03-30T15:19:56.709Z,11.32
2018-03-30T15:22:28.281Z,11.16
2018-03-30T15:24:57.466Z,10.98
2018-03-30T15:27:37.658Z,10.95
2018-03-30T15:30:11.033Z,10.93
2018-03-30T15:35:42.968Z,10.84
2018-03-30T15:38:10.465Z,10.88
2018-03-30T15:40:37.947Z,10.93
2018-03-30T15:43:07.931Z,10.85
2018-03-30T15:45:37.130Z,10.93
2018-03-30T15:48:04.970Z,11.00
2018-03-30T15:50:32.471Z,11.04
2018-03-30T15:52:59.942Z,11.03
2018-03-30T15:55:27.434Z,10.91
2018-03-30T15:57:54.897Z,10.89
2018-03-30T16:00:22.381Z,10.91
2018-03-30T16:02:49.877Z,11.41
2018-03-30T16:05:17.350Z,11.87
2018-03-30T16:07:44.818Z,12.06
2018-03-30T16:12:50.616Z,12.33
2018-03-30T16:15:18.086Z,11.84
2018-03-30T16:17:45.567Z,11.83
2018-03-30T16:20:12.514Z,11.97
2018-03-30T16:22:39.433Z,11.80
2018-03-30T16:25:06.374Z,11.32
2018-03-30T16:27:33.321Z,10.96
2018-03-30T16:30:00.254Z,10.76
2018-03-30T16:32:27.225Z,10.61
2018-03-30T16:34:54.159Z,10.31
2018-03-30T16:37:21.179Z,10.28
2018-03-30T16:39:48.124Z,10.10
2018-03-30T16:42:15.129Z,9.87
2018-03-30T16:44:42.078Z,9.64
2018-03-30T16:47:08.998Z,9.56
2018-03-30T16:49:36.003Z,9.45
2018-03-30T16:52:02.923Z,9.36
2018-03-30T16:54:30.171Z,9.28
2018-03-30T16:56:57.115Z,9.13
2018-03-30T16:59:24.026Z,9.05
2018-03-30T17:01:50.947Z,8.96
2018-03-30T17:04:17.926Z,8.94
2018-03-30T17:06:44.926Z,8.87
2018-03-30T17:09:11.889Z,8.78
2018-03-30T17:11:38.830Z,8.68
2018-03-30T17:14:05.764Z,8.61
2018-03-30T17:16:32.721Z,8.58
2018-03-30T17:18:59.668Z,8.50
2018-03-30T17:21:26.578Z,8.45
2018-03-30T17:23:53.515Z,8.40
2018-03-30T17:26:20.482Z,8.33
2018-03-30T17:28:47.389Z,8.27
2018-03-30T17:31:14.306Z,8.20
2018-03-30T17:33:41.251Z,8.16
2018-03-30T17:36:08.166Z,8.11
2018-03-30T17:38:35.091Z,8.07
2018-03-30T17:41:02.163Z,8.02
2018-03-30T17:43:29.091Z,7.98
2018-03-30T17:45:56.006Z,7.93
2018-03-30T17:48:22.997Z,7.89
2018-03-30T17:50:49.987Z,7.85
2018-03-30T17:53:16.910Z,7.81
2018-03-30T17:55:43.864Z,7.75
2018-03-30T17:58:10.786Z,7.70
2018-03-30T18:00:37.705Z,7.67
2018-03-30T18:03:04.677Z,7.66
2018-03-30T18:05:31.592Z,7.63
2018-03-30T18:07:58.522Z,7.60
2018-03-30T18:10:25.485Z,7.58
2018-03-30T18:12:52.410Z,7.56
2018-03-30T18:15:19.344Z,7.50
2018-03-30T18:17:46.295Z,7.47
2018-03-30T18:20:13.205Z,7.43
2018-03-30T18:22:40.147Z,7.39
2018-03-30T18:25:07.084Z,7.36
2018-03-30T18:27:34.003Z,7.32
2018-03-30T18:30:00.949Z,7.31
2018-03-30T18:32:27.898Z,7.23
2018-03-30T18:34:54.897Z,7.19
2018-03-30T18:37:21.844Z,7.13
2018-03-30T18:39:48.828Z,7.08
2018-03-30T18:42:15.756Z,7.05
2018-03-30T18:44:42.676Z,7.00
2018-03-30T18:47:09.664Z,6.97
2018-03-30T18:49:36.601Z,6.91
2018-03-30T18:52:03.520Z,6.84
2018-03-30T18:54:30.459Z,6.80
2018-03-30T18:56:57.400Z,6.71
2018-03-30T18:59:24.410Z,6.67
2018-03-30T19:01:51.363Z,6.62
2018-03-30T19:04:18.280Z,6.57
2018-03-30T19:06:45.474Z,6.52
2018-03-30T19:09:12.406Z,6.50
2018-03-30T19:11:39.340Z,6.44
2018-03-30T19:14:06.301Z,6.40
2018-03-30T19:16:33.229Z,6.33
2018-03-30T19:19:00.142Z,6.27
2018-03-30T19:21:27.124Z,6.21
2018-03-30T19:23:54.048Z,6.18
2018-03-30T19:26:20.975Z,6.13
2018-03-30T19:28:47.964Z,6.10
2018-03-30T19:31:14.882Z,6.08
2018-03-30T19:33:41.826Z,6.07
2018-03-30T19:36:09.126Z,6.00
2018-03-30T19:38:36.069Z,5.96
2018-03-30T19:41:03.097Z,5.92
2018-03-30T19:43:30.178Z,5.89
2018-03-30T19:45:57.102Z,5.88
2018-03-30T19:48:24.045Z,5.84
2018-03-30T19:50:50.989Z,5.83
2018-03-30T19:53:17.922Z,5.84
2018-03-30T19:55:44.874Z,5.80
2018-03-30T19:58:11.814Z,5.75
2018-03-30T20:00:38.739Z,5.72
2018-03-30T20:03:05.734Z,5.70
2018-03-30T20:05:32.698Z,5.66
2018-03-30T20:07:59.623Z,5.64
2018-03-30T20:10:26.637Z,5.63
2018-03-30T20:12:53.563Z,5.59
2018-03-30T20:15:20.478Z,5.60
2018-03-30T20:17:47.422Z,5.56
2018-03-30T20:20:14.352Z,5.54
2018-03-30T20:22:41.270Z,5.54
2018-03-30T20:25:08.216Z,5.55
2018-03-30T20:27:35.148Z,5.53
2018-03-30T20:30:02.103Z,5.49
2018-03-30T20:32:29.060Z,5.51
2018-03-30T20:34:55.974Z,5.46
2018-03-30T20:37:22.931Z,5.45
2018-03-30T20:39:49.858Z,5.41
2018-03-30T20:42:16.782Z,5.41
2018-03-30T20:44:43.714Z,5.34
2018-03-30T20:47:10.658Z,5.30
2018-03-30T20:49:37.592Z,5.30
2018-03-30T20:52:04.633Z,5.27
2018-03-30T20:54:31.604Z,5.25
2018-03-30T20:56:58.543Z,5.26
2018-03-30T20:59:25.560Z,5.25
2018-03-30T21:01:52.496Z,5.22
2018-03-30T21:04:19.410Z,5.19
2018-03-30T21:06:46.380Z,5.15
2018-03-30T21:09:13.368Z,5.08
2018-03-30T21:11:40.302Z,5.14
2018-03-30T21:14:07.283Z,5.10
2018-03-30T21:16:34.217Z,5.05
2018-03-30T21:19:01.151Z,5.05
2018-03-30T21:21:28.095Z,5.03
2018-03-30T21:23:55.021Z,5.06
2018-03-30T21:26:21.982Z,5.03
2018-03-30T21:28:48.919Z,4.99
2018-03-30T21:31:15.851Z,4.94
2018-03-30T21:33:42.797Z,4.93
2018-03-30T21:36:09.722Z,4.93
2018-03-30T21:38:36.641Z,4.92
2018-03-30T21:41:03.590Z,4.93
2018-03-30T21:43:30.513Z,4.92
2018-03-30T21:45:57.426Z,4.95
2018-03-30T21:48:24.365Z,4.91
2018-03-30T21:50:51.289Z,4.81
2018-03-30T21:53:18.231Z,4.73
2018-03-30T21:55:45.176Z,4.70
2018-03-30T21:58:12.180Z,4.70
2018-03-30T22:00:39.107Z,4.67
2018-03-30T22:03:06.029Z,4.61
2018-03-30T22:05:33.719Z,4.59
2018-03-30T22:08:00.641Z,4.54
2018-03-30T22:10:27.760Z,4.49
2018-03-30T22:12:54.679Z,4.49
2018-03-30T22:15:21.610Z,4.44
2018-03-30T22:17:48.587Z,4.45
2018-03-30T22:20:15.516Z,4.36
2018-03-30T22:22:42.498Z,4.34
2018-03-30T22:25:09.418Z,4.27
2018-03-30T22:27:36.347Z,4.23
2018-03-30T22:30:03.296Z,4.19
2018-03-30T22:32:30.239Z,4.14
2018-03-30T22:34:57.245Z,4.16
2018-03-30T22:37:24.254Z,4.13
2018-03-30T22:39:51.181Z,4.09
2018-03-30T22:42:18.092Z,4.09
2018-03-30T22:44:45.042Z,4.09
2018-03-30T22:47:12.054Z,4.07
2018-03-30T22:49:39.074Z,4.10
2018-03-30T22:52:06.017Z,4.07
2018-03-30T22:54:32.962Z,4.06
2018-03-30T22:57:00.058Z,3.95
2018-03-30T22:59:27.004Z,3.90
2018-03-30T23:01:53.929Z,3.83
2018-03-30T23:04:20.904Z,3.80
2018-03-30T23:06:47.916Z,3.76
2018-03-30T23:09:14.833Z,3.71
2018-03-30T23:11:41.783Z,3.68
2018-03-30T23:14:08.702Z,3.65
2018-03-30T23:16:36.039Z,3.61
2018-03-30T23:19:03.054Z,3.59
2018-03-30T23:21:29.970Z,3.54
2018-03-30T23:23:56.907Z,3.50
2018-03-30T23:26:23.854Z,3.47
2018-03-30T23:28:50.787Z,3.42
2018-03-30T23:31:17.994Z,3.42
2018-03-30T23:33:45.019Z,3.36
2018-03-30T23:36:11.983Z,3.33
2018-03-30T23:38:38.922Z,3.29
2018-03-30T23:41:06.008Z,3.22
2018-03-30T23:43:33.100Z,3.21
2018-03-30T23:46:00.101Z,3.15
2018-03-30T23:48:27.056Z,3.13
2018-03-30T23:50:54.051Z,3.12
2018-03-30T23:53:21.022Z,3.07
2018-03-30T23:55:47.974Z,3.04
2018-03-30T23:58:14.933Z,3.10
